createdAt,value
2023-01-10T00:01:53.075Z,69.28
2023-01-10T00:04:21.346Z,69.27
2023-01-10T00:06:49.569Z,69.22
2023-01-10T00:09:17.658Z,69.05
2023-01-10T00:12:04.405Z,69.10
2023-01-10T00:14:35.223Z,69.39
2023-01-10T00:17:03.706Z,69.48
2023-01-10T00:19:32.003Z,69.50
2023-01-10T00:22:06.749Z,69.70
2023-01-10T00:24:35.544Z,69.67
2023-01-10T00:27:03.696Z,69.37
2023-01-10T00:29:31.806Z,69.64
2023-01-10T00:31:59.942Z,69.70
2023-01-10T00:34:28.059Z,69.66
2023-01-10T00:36:56.398Z,69.71
2023-01-10T00:39:27.590Z,69.76
2023-01-10T00:42:14.558Z,69.73
2023-01-10T00:44:42.794Z,69.61
2023-01-10T00:47:10.899Z,69.72
2023-01-10T00:49:40.609Z,69.73
2023-01-10T00:52:08.764Z,69.91
2023-01-10T00:54:36.902Z,69.87
2023-01-10T00:57:05.045Z,69.88
2023-01-10T00:59:33.185Z,70.06
2023-01-10T01:02:01.394Z,70.17
2023-01-10T01:04:34.465Z,70.10
2023-01-10T01:07:03.097Z,70.32
2023-01-10T01:09:31.196Z,70.40
2023-01-10T01:11:59.325Z,70.63
2023-01-10T01:14:27.515Z,70.53
2023-01-10T01:16:56.395Z,70.70
2023-01-10T01:19:24.578Z,70.65
2023-01-10T01:21:52.704Z,70.80
2023-01-10T01:24:21.455Z,70.73
2023-01-10T01:26:49.677Z,70.75
2023-01-10T01:29:18.143Z,70.73
2023-01-10T01:31:46.452Z,70.72
2023-01-10T01:34:14.742Z,70.76
2023-01-10T01:36:42.964Z,70.99
2023-01-10T01:39:11.143Z,70.96
2023-01-10T01:41:57.787Z,70.97
2023-01-10T01:44:36.687Z,71.25
2023-01-10T01:47:22.830Z,71.03
2023-01-10T01:49:51.886Z,71.01
2023-01-10T01:52:29.443Z,70.78
2023-01-10T01:54:59.473Z,71.08
2023-01-10T01:57:31.874Z,71.07
2023-01-10T02:00:02.809Z,71.04
2023-01-10T02:03:01.749Z,70.92
2023-01-10T02:05:36.518Z,70.93
2023-01-10T02:08:05.498Z,71.10
2023-01-10T02:10:58.460Z,71.01
2023-01-10T02:13:28.050Z,71.02
2023-01-10T02:15:56.126Z,71.25
2023-01-10T02:18:24.783Z,71.15
2023-01-10T02:20:53.265Z,71.07
2023-01-10T02:24:12.642Z,71.07
2023-01-10T02:26:58.240Z,71.30
2023-01-10T02:29:29.353Z,71.22
2023-01-10T02:32:40.662Z,71.38
2023-01-10T02:35:45.839Z,71.38
2023-01-10T02:38:32.536Z,71.47
2023-01-10T02:41:19.697Z,71.40
2023-01-10T02:43:56.669Z,71.37
2023-01-10T02:46:31.572Z,71.52
2023-01-10T02:48:59.724Z,71.62
2023-01-10T02:51:30.724Z,71.61
2023-01-10T02:54:12.404Z,71.86
2023-01-10T02:57:20.269Z,71.94
2023-01-10T03:00:12.209Z,71.84
2023-01-10T03:03:33.425Z,71.84
2023-01-10T03:06:34.683Z,71.97
2023-01-10T03:09:27.550Z,72.02
2023-01-10T03:12:27.679Z,72.22
2023-01-10T03:14:59.218Z,72.44
2023-01-10T03:17:30.598Z,72.47
2023-01-10T03:20:06.161Z,72.57
2023-01-10T03:22:38.937Z,72.47
2023-01-10T03:25:13.016Z,72.77
2023-01-10T03:27:51.942Z,72.83
2023-01-10T03:30:57.996Z,73.08
2023-01-10T03:33:31.074Z,73.16
2023-01-10T03:36:31.231Z,73.02
2023-01-10T03:39:31.474Z,73.43
2023-01-10T03:42:11.051Z,73.42
2023-01-10T03:45:08.888Z,73.60
2023-01-10T03:47:46.486Z,73.18
2023-01-10T03:50:21.071Z,73.32
2023-01-10T03:52:49.174Z,73.82
2023-01-10T03:55:24.824Z,73.78
2023-01-10T03:57:52.952Z,73.76
2023-01-10T04:00:21.601Z,73.69
2023-01-10T04:02:50.114Z,73.81
2023-01-10T04:05:18.386Z,73.85
2023-01-10T04:07:47.785Z,73.80
2023-01-10T04:10:16.723Z,73.84
2023-01-10T04:12:44.851Z,73.95
2023-01-10T04:15:13.371Z,73.86
2023-01-10T04:17:41.551Z,73.92
2023-01-10T04:20:11.189Z,73.89
2023-01-10T04:22:39.295Z,73.87
2023-01-10T04:25:08.128Z,73.83
2023-01-10T04:27:36.299Z,73.82
2023-01-10T04:30:05.421Z,73.69
2023-01-10T04:32:33.605Z,73.72
2023-01-10T04:35:01.811Z,73.85
2023-01-10T04:37:29.904Z,73.71
2023-01-10T04:39:57.976Z,73.90
2023-01-10T04:42:26.107Z,73.81
2023-01-10T04:44:54.227Z,73.74
2023-01-10T04:47:22.417Z,73.74
2023-01-10T04:49:50.753Z,73.65
2023-01-10T04:52:18.881Z,73.65
2023-01-10T04:54:47.044Z,73.66
2023-01-10T04:57:15.153Z,73.78
2023-01-10T04:59:43.399Z,73.71
2023-01-10T05:02:11.831Z,73.79
2023-01-10T05:04:39.975Z,73.91
2023-01-10T05:07:08.207Z,73.85
2023-01-10T05:09:36.328Z,73.94
2023-01-10T05:12:04.749Z,73.91
2023-01-10T05:14:32.955Z,74.06
2023-01-10T05:17:01.051Z,74.17
2023-01-10T05:19:29.148Z,74.21
2023-01-10T05:21:57.351Z,74.19
2023-01-10T05:24:25.476Z,74.26
2023-01-10T05:26:53.619Z,74.18
2023-01-10T05:29:21.728Z,74.21
2023-01-10T05:31:52.330Z,74.37
2023-01-10T05:34:21.007Z,74.63
2023-01-10T05:36:49.133Z,74.82
2023-01-10T05:39:17.501Z,75.09
2023-01-10T05:41:45.889Z,74.75
2023-01-10T05:44:14.925Z,74.90
2023-01-10T05:46:43.344Z,74.76
2023-01-10T05:49:11.481Z,74.54
2023-01-10T05:51:39.731Z,74.22
2023-01-10T05:54:08.678Z,74.14
2023-01-10T05:56:38.777Z,74.29
2023-01-10T05:59:14.247Z,74.31
2023-01-10T06:01:55.195Z,74.04
2023-01-10T06:04:23.555Z,74.12
2023-01-10T06:06:51.683Z,74.43
2023-01-10T06:09:19.941Z,74.30
2023-01-10T06:11:48.158Z,74.28
2023-01-10T06:14:19.307Z,74.25
2023-01-10T06:16:47.672Z,74.28
2023-01-10T06:19:15.910Z,74.45
2023-01-10T06:21:44.042Z,74.37
2023-01-10T06:24:12.176Z,74.43
2023-01-10T06:26:40.299Z,74.27
2023-01-10T06:29:08.544Z,74.40
2023-01-10T06:31:36.840Z,74.46
2023-01-10T06:34:05.009Z,74.36
2023-01-10T06:36:33.116Z,74.57
2023-01-10T06:39:01.854Z,74.81
2023-01-10T06:41:30.096Z,74.63
2023-01-10T06:43:58.178Z,74.82
2023-01-10T06:46:26.399Z,74.73
2023-01-10T06:48:54.583Z,74.77
2023-01-10T06:51:22.719Z,74.87
2023-01-10T06:53:50.801Z,75.03
2023-01-10T06:56:18.934Z,75.18
2023-01-10T06:58:50.402Z,75.15
2023-01-10T07:01:21.369Z,75.35
2023-01-10T07:03:49.732Z,75.29
2023-01-10T07:06:17.938Z,75.13
2023-01-10T07:08:47.578Z,75.24
2023-01-10T07:11:16.917Z,75.20
2023-01-10T07:13:45.050Z,75.17
2023-01-10T07:16:15.972Z,75.44
2023-01-10T07:18:44.465Z,75.43
2023-01-10T07:21:13.067Z,75.34
2023-01-10T07:23:41.344Z,75.48
2023-01-10T07:26:12.007Z,75.65
2023-01-10T07:28:40.118Z,75.53
2023-01-10T07:31:08.305Z,75.85
2023-01-10T07:33:36.512Z,75.79
2023-01-10T07:36:05.171Z,75.63
2023-01-10T07:38:33.317Z,75.65
2023-01-10T07:41:03.551Z,75.76
2023-01-10T07:43:32.092Z,75.86
2023-01-10T07:46:02.436Z,76.24
2023-01-10T07:48:31.449Z,75.98
2023-01-10T07:51:01.338Z,76.19
2023-01-10T07:53:29.838Z,76.50
2023-01-10T07:56:03.303Z,76.42
2023-01-10T07:58:33.139Z,76.61
2023-01-10T08:01:04.516Z,76.45
2023-01-10T08:03:33.530Z,76.60
2023-01-10T08:06:07.571Z,76.77
2023-01-10T08:08:35.856Z,76.67
2023-01-10T08:11:04.863Z,76.86
2023-01-10T08:13:34.174Z,76.73
2023-01-10T08:16:07.449Z,76.74
2023-01-10T08:18:36.236Z,76.57
2023-01-10T08:21:04.746Z,76.48
2023-01-10T08:23:32.862Z,76.54
2023-01-10T08:26:01.791Z,76.44
2023-01-10T08:28:29.896Z,76.40
2023-01-10T08:30:58.183Z,76.28
2023-01-10T08:33:27.522Z,76.33
2023-01-10T08:35:55.724Z,76.42
2023-01-10T08:38:23.879Z,76.34
2023-01-10T08:40:52.143Z,76.38
2023-01-10T08:43:20.284Z,76.21
2023-01-10T08:45:49.890Z,76.18
2023-01-10T08:48:18.487Z,76.27
2023-01-10T08:50:46.639Z,76.34
2023-01-10T08:53:14.846Z,76.28
2023-01-10T08:55:42.985Z,76.45
2023-01-10T08:58:11.783Z,76.47
2023-01-10T09:00:39.991Z,76.40
2023-01-10T09:03:08.723Z,76.32
2023-01-10T09:05:36.964Z,76.13
2023-01-10T09:08:05.574Z,76.16
2023-01-10T09:10:33.789Z,76.30
2023-01-10T09:13:02.226Z,76.30
2023-01-10T09:15:36.354Z,76.54
2023-01-10T09:18:07.640Z,76.62
2023-01-10T09:20:39.156Z,76.60
2023-01-10T09:23:17.899Z,76.84
2023-01-10T09:25:48.183Z,76.82
2023-01-10T09:28:18.124Z,76.90
2023-01-10T09:30:46.888Z,76.98
2023-01-10T09:33:15.499Z,77.17
2023-01-10T09:35:44.505Z,77.11
2023-01-10T09:38:16.452Z,77.10
2023-01-10T09:41:03.295Z,77.18
2023-01-10T09:43:42.692Z,77.32
2023-01-10T09:46:31.863Z,77.30
2023-01-10T09:49:29.524Z,77.25
2023-01-10T09:51:59.232Z,77.36
2023-01-10T09:54:33.380Z,77.64
2023-01-10T09:57:02.241Z,77.25
2023-01-10T09:59:38.962Z,77.30
2023-01-10T10:02:41.748Z,77.29
2023-01-10T10:05:28.614Z,77.55
2023-01-10T10:08:05.119Z,77.64
2023-01-10T10:10:48.850Z,77.60
2023-01-10T10:13:56.837Z,77.68
2023-01-10T10:17:00.887Z,77.82
2023-01-10T10:20:19.769Z,77.93
2023-01-10T10:23:12.810Z,77.83
2023-01-10T10:25:43.724Z,78.09
2023-01-10T10:28:53.889Z,78.18
2023-01-10T10:31:41.002Z,78.32
2023-01-10T10:34:37.449Z,78.21
2023-01-10T10:37:41.067Z,78.33
2023-01-10T10:40:21.869Z,78.54
2023-01-10T10:42:53.899Z,78.62
2023-01-10T10:45:45.222Z,78.68
2023-01-10T10:48:30.336Z,78.72
2023-01-10T10:51:07.508Z,78.84
2023-01-10T10:53:37.114Z,79.00
2023-01-10T10:56:10.559Z,78.99
2023-01-10T10:58:43.633Z,79.16
2023-01-10T11:01:17.984Z,79.25
2023-01-10T11:03:53.736Z,79.21
2023-01-10T11:06:25.307Z,79.20
2023-01-10T11:08:58.972Z,79.31
2023-01-10T11:11:44.865Z,79.25
2023-01-10T11:14:13.759Z,79.23
2023-01-10T11:16:45.116Z,79.41
2023-01-10T11:19:31.514Z,79.39
2023-01-10T11:22:03.716Z,79.47
2023-01-10T11:24:40.962Z,79.34
2023-01-10T11:27:26.681Z,79.56
2023-01-10T11:30:26.105Z,79.65
2023-01-10T11:33:07.054Z,79.45
2023-01-10T11:35:41.435Z,79.66
2023-01-10T11:38:24.680Z,79.63
2023-01-10T11:41:18.993Z,79.76
2023-01-10T11:43:47.190Z,79.85
2023-01-10T11:46:33.946Z,79.75
2023-01-10T11:49:08.179Z,80.08
2023-01-10T11:51:44.021Z,80.04
2023-01-10T11:54:19.715Z,79.98
2023-01-10T11:56:59.043Z,80.14
2023-01-10T11:59:28.533Z,80.03
2023-01-10T12:02:29.372Z,80.13
2023-01-10T12:05:02.164Z,80.04
2023-01-10T12:07:30.474Z,80.08
2023-01-10T12:10:03.829Z,80.29
2023-01-10T12:12:35.849Z,80.30
2023-01-10T12:15:28.295Z,80.43
2023-01-10T12:18:00.360Z,80.30
2023-01-10T12:20:39.550Z,80.18
2023-01-10T12:23:17.258Z,80.07
2023-01-10T12:25:47.634Z,79.95
2023-01-10T12:28:30.164Z,80.10
2023-01-10T12:31:01.232Z,80.05
2023-01-10T12:33:40.633Z,80.02
2023-01-10T12:36:08.734Z,80.13
2023-01-10T12:39:03.621Z,80.26
2023-01-10T12:42:23.654Z,80.11
2023-01-10T12:45:13.871Z,80.19
2023-01-10T12:48:04.365Z,80.11
2023-01-10T12:50:40.585Z,80.07
2023-01-10T12:53:44.272Z,80.14
2023-01-10T12:56:16.606Z,80.12
2023-01-10T12:59:07.367Z,80.30
2023-01-10T13:01:43.390Z,80.25
2023-01-10T13:04:19.400Z,80.44
2023-01-10T13:06:48.118Z,80.33
2023-01-10T13:09:24.637Z,80.35
2023-01-10T13:12:20.238Z,80.25
2023-01-10T13:14:54.236Z,80.11
2023-01-10T13:17:28.554Z,80.04
2023-01-10T13:20:21.465Z,80.16
2023-01-10T13:22:58.748Z,80.15
2023-01-10T13:25:37.881Z,80.15
2023-01-10T13:28:28.875Z,80.27
2023-01-10T13:31:01.443Z,80.13
2023-01-10T13:33:36.044Z,80.35
2023-01-10T13:36:19.770Z,80.42
2023-01-10T13:38:56.221Z,80.45
2023-01-10T13:41:43.826Z,80.40
2023-01-10T13:44:14.742Z,80.28
2023-01-10T13:46:49.971Z,80.60
2023-01-10T13:49:38.681Z,80.57
2023-01-10T13:52:32.621Z,80.42
2023-01-10T13:55:20.754Z,80.54
2023-01-10T13:57:59.965Z,80.40
2023-01-10T14:00:52.639Z,80.54
2023-01-10T14:03:45.738Z,80.49
2023-01-10T14:06:29.817Z,80.73
2023-01-10T14:09:00.798Z,80.71
2023-01-10T14:11:44.038Z,80.85
2023-01-10T14:14:23.340Z,80.68
2023-01-10T14:16:58.207Z,80.74
2023-01-10T14:19:34.142Z,80.89
2023-01-10T14:22:04.247Z,81.05
2023-01-10T14:24:42.500Z,81.12
2023-01-10T14:27:17.798Z,81.03
2023-01-10T14:29:56.179Z,81.14
2023-01-10T14:32:53.196Z,81.42
2023-01-10T14:35:28.079Z,81.32
2023-01-10T14:38:04.438Z,81.39
2023-01-10T14:40:32.540Z,81.41
2023-01-10T14:43:09.384Z,81.58
2023-01-10T14:45:52.575Z,81.54
2023-01-10T14:48:29.152Z,81.42
2023-01-10T14:51:31.456Z,81.68
2023-01-10T14:54:03.002Z,81.72
2023-01-10T14:56:45.490Z,81.72
2023-01-10T14:59:24.553Z,81.77
2023-01-10T15:01:57.976Z,82.04
2023-01-10T15:04:31.101Z,82.25
2023-01-10T15:07:11.120Z,82.38
2023-01-10T15:09:39.365Z,82.61
2023-01-10T15:12:13.956Z,82.63
2023-01-10T15:14:42.532Z,82.84
2023-01-10T15:17:20.521Z,82.75
2023-01-10T15:19:52.801Z,82.88
2023-01-10T15:22:30.890Z,82.88
2023-01-10T15:25:05.222Z,82.89
2023-01-10T15:27:34.120Z,82.87
2023-01-10T15:30:09.105Z,83.03
2023-01-10T15:32:40.110Z,83.02
2023-01-10T15:35:15.774Z,83.07
2023-01-10T15:37:55.826Z,83.18
2023-01-10T15:40:37.312Z,83.07
2023-01-10T15:43:30.064Z,83.32
2023-01-10T15:46:00.938Z,83.38
2023-01-10T15:48:36.139Z,83.44
2023-01-10T15:51:15.026Z,83.37
2023-01-10T15:54:20.390Z,83.55
2023-01-10T15:56:56.341Z,83.57
2023-01-10T15:59:35.555Z,83.66
2023-01-10T16:02:13.702Z,83.99
2023-01-10T16:04:43.514Z,84.13
2023-01-10T16:07:25.686Z,84.09
2023-01-10T16:10:24.729Z,84.10
2023-01-10T16:13:12.185Z,84.10
2023-01-10T16:15:44.563Z,84.06
2023-01-10T16:18:12.681Z,84.29
2023-01-10T16:20:47.155Z,84.61
2023-01-10T16:23:26.124Z,84.74
2023-01-10T16:25:58.207Z,84.61
2023-01-10T16:28:30.908Z,84.80
2023-01-10T16:30:59.017Z,85.20
2023-01-10T16:33:27.949Z,85.22
2023-01-10T16:35:59.632Z,85.02
2023-01-10T16:38:29.421Z,84.98
2023-01-10T16:41:00.068Z,85.05
2023-01-10T16:43:29.315Z,85.18
2023-01-10T16:46:03.781Z,85.16
2023-01-10T16:48:32.989Z,85.19
2023-01-10T16:51:18.473Z,85.15
2023-01-10T16:53:47.266Z,84.89
2023-01-10T16:56:19.640Z,84.72
2023-01-10T16:58:52.861Z,84.91
2023-01-10T17:01:30.703Z,85.04
2023-01-10T17:03:59.450Z,84.95
2023-01-10T17:06:28.806Z,85.24
2023-01-10T17:08:56.968Z,85.25
2023-01-10T17:11:34.429Z,85.30
2023-01-10T17:14:04.401Z,85.23
2023-01-10T17:16:35.243Z,85.27
2023-01-10T17:19:03.467Z,85.33
2023-01-10T17:21:31.651Z,85.46
2023-01-10T17:23:59.790Z,85.45
2023-01-10T17:26:28.061Z,85.32
2023-01-10T17:28:56.262Z,85.29
2023-01-10T17:31:24.519Z,85.28
2023-01-10T17:33:52.704Z,85.24
2023-01-10T17:36:22.606Z,85.23
2023-01-10T17:38:50.742Z,85.21
2023-01-10T17:41:18.995Z,85.15
2023-01-10T17:43:47.179Z,85.07
2023-01-10T17:46:17.383Z,85.10
2023-01-10T17:48:45.482Z,84.97
2023-01-10T17:51:13.777Z,84.90
2023-01-10T17:53:41.897Z,84.84
2023-01-10T17:56:10.672Z,84.86
2023-01-10T17:58:38.917Z,84.91
2023-01-10T18:01:13.753Z,84.71
2023-01-10T18:03:41.932Z,84.77
2023-01-10T18:06:22.881Z,84.69
2023-01-10T18:08:53.300Z,84.51
2023-01-10T18:11:25.202Z,84.61
2023-01-10T18:13:55.241Z,84.46
2023-01-10T18:16:25.651Z,84.54
2023-01-10T18:18:56.413Z,84.52
2023-01-10T18:21:27.307Z,84.48
2023-01-10T18:23:59.496Z,84.45
2023-01-10T18:26:27.699Z,84.34
2023-01-10T18:28:55.837Z,84.26
2023-01-10T18:31:23.949Z,84.19
2023-01-10T18:33:53.737Z,84.11
2023-01-10T18:36:24.348Z,84.10
2023-01-10T18:38:52.690Z,84.13
2023-01-10T18:41:21.581Z,84.10
2023-01-10T18:43:49.716Z,84.14
2023-01-10T18:46:22.688Z,84.16
2023-01-10T18:48:52.804Z,84.06
2023-01-10T18:51:22.749Z,83.93
2023-01-10T18:53:53.110Z,84.04
2023-01-10T18:56:21.385Z,83.94
2023-01-10T18:58:49.513Z,84.01
2023-01-10T19:01:20.697Z,83.96
2023-01-10T19:03:50.214Z,84.06
2023-01-10T19:06:22.608Z,84.00
2023-01-10T19:08:51.576Z,83.91
2023-01-10T19:11:21.295Z,83.98
2023-01-10T19:13:54.126Z,83.95
2023-01-10T19:16:29.269Z,83.98
2023-01-10T19:19:03.825Z,83.85
2023-01-10T19:21:33.919Z,83.75
2023-01-10T19:24:06.916Z,83.77
2023-01-10T19:26:35.056Z,83.86
2023-01-10T19:29:04.613Z,83.79
2023-01-10T19:31:32.831Z,83.84
2023-01-10T19:34:01.663Z,83.90
2023-01-10T19:36:34.717Z,83.83
2023-01-10T19:39:03.157Z,83.94
2023-01-10T19:41:31.307Z,83.98
2023-01-10T19:44:02.547Z,84.10
2023-01-10T19:46:36.749Z,84.15
2023-01-10T19:49:08.093Z,84.20
2023-01-10T19:51:39.372Z,84.14
2023-01-10T19:54:08.864Z,84.21
2023-01-10T19:56:37.427Z,84.35
2023-01-10T19:59:07.367Z,84.32
2023-01-10T20:01:36.173Z,84.20
2023-01-10T20:04:06.472Z,84.14
2023-01-10T20:06:39.286Z,84.26
2023-01-10T20:09:10.487Z,84.17
2023-01-10T20:11:40.410Z,84.08
2023-01-10T20:14:19.694Z,84.28
2023-01-10T20:16:48.952Z,84.24
2023-01-10T20:19:17.526Z,84.22
2023-01-10T20:21:45.813Z,84.25
2023-01-10T20:24:18.662Z,84.40
2023-01-10T20:26:49.490Z,84.27
2023-01-10T20:29:19.019Z,84.45
2023-01-10T20:31:52.792Z,84.49
2023-01-10T20:34:22.928Z,84.55
2023-01-10T20:36:54.089Z,84.67
2023-01-10T20:39:23.725Z,84.66
2023-01-10T20:41:52.353Z,84.75
2023-01-10T20:44:20.473Z,84.68
2023-01-10T20:46:48.695Z,84.73
2023-01-10T20:49:16.797Z,84.68
2023-01-10T20:51:45.458Z,84.74
2023-01-10T20:54:13.723Z,85.01
2023-01-10T20:56:42.194Z,84.92
2023-01-10T20:59:10.323Z,85.02
2023-01-10T21:01:38.522Z,85.10
2023-01-10T21:04:07.756Z,85.20
2023-01-10T21:06:36.344Z,85.14
2023-01-10T21:09:06.023Z,85.35
2023-01-10T21:11:44.341Z,85.39
2023-01-10T21:14:20.219Z,85.53
2023-01-10T21:16:49.453Z,85.59
2023-01-10T21:19:17.630Z,85.68
2023-01-10T21:21:45.732Z,85.60
2023-01-10T21:24:15.900Z,85.85
2023-01-10T21:26:44.022Z,85.98
2023-01-10T21:29:13.208Z,85.79
2023-01-10T21:31:41.775Z,85.89
2023-01-10T21:34:10.011Z,85.93
2023-01-10T21:36:38.258Z,86.19
2023-01-10T21:39:06.391Z,86.12
2023-01-10T21:41:53.226Z,86.16
2023-01-10T21:44:21.412Z,85.99
2023-01-10T21:46:51.349Z,86.31
2023-01-10T21:49:21.418Z,86.45
2023-01-10T21:51:49.662Z,86.27
2023-01-10T21:54:17.842Z,86.59
2023-01-10T21:56:46.009Z,86.51
2023-01-10T21:59:14.319Z,86.75
2023-01-10T22:01:42.517Z,86.54
2023-01-10T22:04:10.836Z,86.58
2023-01-10T22:06:39.040Z,86.52
2023-01-10T22:09:07.217Z,86.57
2023-01-10T22:11:35.325Z,86.69
2023-01-10T22:14:03.444Z,86.78
2023-01-10T22:16:31.660Z,86.74
2023-01-10T22:18:59.867Z,86.87
2023-01-10T22:21:27.961Z,86.87
2023-01-10T22:23:56.109Z,86.93
2023-01-10T22:26:24.263Z,86.99
2023-01-10T22:28:52.356Z,87.06
2023-01-10T22:31:20.475Z,87.22
2023-01-10T22:33:49.993Z,87.12
2023-01-10T22:36:19.663Z,87.09
2023-01-10T22:38:48.946Z,87.12
2023-01-10T22:41:27.363Z,87.20
2023-01-10T22:43:56.803Z,87.20
2023-01-10T22:46:25.480Z,87.38
2023-01-10T22:48:54.048Z,87.25
2023-01-10T22:51:24.033Z,87.25
2023-01-10T22:53:55.483Z,87.40
2023-01-10T22:56:26.393Z,87.44
2023-01-10T22:58:54.614Z,87.32
2023-01-10T23:01:25.044Z,87.38
2023-01-10T23:03:53.217Z,87.57
2023-01-10T23:06:21.551Z,87.40
2023-01-10T23:08:50.652Z,87.44
2023-01-10T23:11:21.542Z,87.40
2023-01-10T23:13:50.027Z,87.52
2023-01-10T23:16:33.913Z,87.58
2023-01-10T23:19:02.210Z,87.71
2023-01-10T23:21:30.307Z,87.62
2023-01-10T23:23:58.500Z,87.53
2023-01-10T23:26:26.685Z,87.60
2023-01-10T23:28:54.835Z,87.77
2023-01-10T23:31:24.840Z,87.53
2023-01-10T23:33:52.965Z,87.15
2023-01-10T23:36:22.101Z,87.34
2023-01-10T23:38:50.881Z,87.31
2023-01-10T23:41:21.277Z,87.24
2023-01-10T23:43:50.733Z,87.48
2023-01-10T23:46:19.560Z,87.60
2023-01-10T23:48:48.592Z,87.58
2023-01-10T23:51:16.852Z,87.83
2023-01-10T23:53:44.983Z,87.96
2023-01-10T23:56:15.102Z,87.82
2023-01-10T23:58:43.327Z,87.81
